createdAt,value
2018-06-03T00:00:43.657Z,89.40
2018-06-03T00:02:43.638Z,89.59
2018-06-03T00:03:44.214Z,89.50
2018-06-03T00:05:45.113Z,89.50
2018-06-03T00:06:44.584Z,89.11
2018-06-03T00:08:46.126Z,89.30
2018-06-03T00:09:45.081Z,89.30
2018-06-03T00:11:45.437Z,89.21
2018-06-03T00:12:44.954Z,89.21
2018-06-03T00:14:47.890Z,89.11
2018-06-03T00:15:43.995Z,89.11
2018-06-03T00:17:44.901Z,89.11
2018-06-03T00:18:44.423Z,88.82
2018-06-03T00:20:44.931Z,89.50
2018-06-03T00:21:44.816Z,89.30
2018-06-03T00:23:45.371Z,89.21
2018-06-03T00:24:45.830Z,89.50
2018-06-03T00:26:45.867Z,89.01
2018-06-03T00:27:45.760Z,89.11
2018-06-03T00:29:46.304Z,89.40
2018-06-03T00:30:46.204Z,89.21
2018-06-03T00:32:48.175Z,89.40
2018-06-03T00:33:46.705Z,89.21
2018-06-03T00:35:48.148Z,89.11
2018-06-03T00:36:47.102Z,89.59
2018-06-03T00:38:47.578Z,89.01
2018-06-03T00:39:47.565Z,88.82
2018-06-03T00:41:49.544Z,88.82
2018-06-03T00:42:49.054Z,88.82
2018-06-03T00:44:48.570Z,89.11
2018-06-03T00:45:48.575Z,89.01
2018-06-03T00:47:49.054Z,89.11
2018-06-03T00:48:49.956Z,89.01
2018-06-03T00:50:52.569Z,88.92
2018-06-03T00:51:49.501Z,89.21
2018-06-03T00:53:49.987Z,88.73
2018-06-03T00:54:50.001Z,88.63
2018-06-03T00:56:50.512Z,89.01
2018-06-03T00:57:50.896Z,88.63
2018-06-03T00:59:51.898Z,88.63
2018-06-03T01:00:51.865Z,89.11
2018-06-03T01:03:02.353Z,89.01
2018-06-03T01:03:51.850Z,88.73
2018-06-03T01:05:54.876Z,89.11
2018-06-03T01:06:52.261Z,88.63
2018-06-03T01:08:52.294Z,88.63
2018-06-03T01:09:52.187Z,88.92
2018-06-03T01:11:54.252Z,88.44
2018-06-03T01:12:52.700Z,88.63
2018-06-03T01:14:53.178Z,88.63
2018-06-03T01:15:53.133Z,88.63
2018-06-03T01:17:54.138Z,88.63
2018-06-03T01:18:53.675Z,88.73
2018-06-03T01:20:56.049Z,88.63
2018-06-03T01:21:54.076Z,88.82
2018-06-03T01:23:54.499Z,88.92
2018-06-03T01:24:54.485Z,88.92
2018-06-03T01:26:57.490Z,88.82
2018-06-03T01:27:55.463Z,88.82
2018-06-03T01:29:56.404Z,88.92
2018-06-03T01:30:55.413Z,88.34
2018-06-03T01:32:58.928Z,88.49
2018-06-03T01:33:56.375Z,88.39
2018-06-03T01:36:02.898Z,88.34
2018-06-03T01:36:57.394Z,88.34
2018-06-03T01:38:56.939Z,88.30
2018-06-03T01:39:57.343Z,88.34
2018-06-03T01:41:57.361Z,88.39
2018-06-03T01:42:57.279Z,88.39
2018-06-03T01:44:58.825Z,88.39
2018-06-03T01:45:58.809Z,88.34
2018-06-03T01:47:59.298Z,88.39
2018-06-03T01:48:59.194Z,87.92
2018-06-03T01:51:00.189Z,88.34
2018-06-03T01:52:00.572Z,88.34
2018-06-03T01:54:01.135Z,88.30
2018-06-03T01:55:00.189Z,88.59
2018-06-03T01:57:00.664Z,88.30
2018-06-03T01:58:00.634Z,88.24
2018-06-03T02:00:03.677Z,88.34
2018-06-03T02:01:01.159Z,88.39
2018-06-03T02:03:01.602Z,88.39
2018-06-03T02:04:01.583Z,88.39
2018-06-03T02:06:02.034Z,88.68
2018-06-03T02:07:02.057Z,88.10
2018-06-03T02:09:03.020Z,87.57
2018-06-03T02:10:02.557Z,87.09
2018-06-03T02:12:00.414Z,88.39
2018-06-03T02:13:00.479Z,87.82
2018-06-03T02:15:01.865Z,87.67
2018-06-03T02:16:01.945Z,87.82
2018-06-03T02:18:02.374Z,87.09
2018-06-03T02:19:03.743Z,87.48
2018-06-03T02:21:03.371Z,87.48
2018-06-03T02:22:03.690Z,88.06
2018-06-03T02:24:03.760Z,87.48
2018-06-03T02:25:03.849Z,86.71
2018-06-03T02:27:05.304Z,87.76
2018-06-03T02:28:05.182Z,87.53
2018-06-03T02:30:03.398Z,87.43
2018-06-03T02:31:02.627Z,87.53
2018-06-03T02:33:03.115Z,87.53
2018-06-03T02:34:03.564Z,87.43
2018-06-03T02:36:03.543Z,87.62
2018-06-03T02:37:04.044Z,87.05
2018-06-03T02:39:05.031Z,87.43
2018-06-03T02:40:03.928Z,87.43
2018-06-03T02:42:04.906Z,87.53
2018-06-03T02:43:04.396Z,87.43
2018-06-03T02:45:04.916Z,87.05
2018-06-03T02:46:04.935Z,87.53
2018-06-03T02:48:06.360Z,87.05
2018-06-03T02:49:06.336Z,87.15
2018-06-03T02:51:05.739Z,86.57
2018-06-03T02:52:05.784Z,86.47
2018-06-03T02:54:06.268Z,86.57
2018-06-03T02:55:06.755Z,86.66
2018-06-03T02:57:06.713Z,86.09
2018-06-03T02:58:07.264Z,86.09
2018-06-03T03:00:08.205Z,86.18
2018-06-03T03:01:08.700Z,86.09
2018-06-03T03:03:11.403Z,85.85
2018-06-03T03:04:08.344Z,85.80
2018-06-03T03:06:08.822Z,85.80
2018-06-03T03:07:08.809Z,85.71
2018-06-03T03:09:10.312Z,85.47
2018-06-03T03:10:09.776Z,85.51
2018-06-03T03:12:09.711Z,85.41
2018-06-03T03:13:10.252Z,85.61
2018-06-03T03:15:10.319Z,84.80
2018-06-03T03:16:10.198Z,85.61
2018-06-03T03:18:10.705Z,84.89
2018-06-03T03:19:10.692Z,84.89
2018-06-03T03:21:11.128Z,84.99
2018-06-03T03:22:11.610Z,84.80
2018-06-03T03:24:12.152Z,84.60
2018-06-03T03:25:12.601Z,84.51
2018-06-03T03:27:13.051Z,84.51
2018-06-03T03:28:13.042Z,84.64
2018-06-03T03:30:13.658Z,84.60
2018-06-03T03:31:14.516Z,84.55
2018-06-03T03:33:16.013Z,85.18
2018-06-03T03:34:14.092Z,85.08
2018-06-03T03:36:16.014Z,84.51
2018-06-03T03:37:16.547Z,84.80
2018-06-03T03:39:17.489Z,84.70
2018-06-03T03:40:15.904Z,84.70
2018-06-03T03:42:19.422Z,84.22
2018-06-03T03:43:16.401Z,84.41
2018-06-03T03:45:18.440Z,84.51
2018-06-03T03:46:17.335Z,84.60
2018-06-03T03:48:20.886Z,84.12
2018-06-03T03:49:21.357Z,84.31
2018-06-03T03:51:21.241Z,84.22
2018-06-03T03:52:21.736Z,84.31
2018-06-03T03:54:21.713Z,84.70
2018-06-03T03:55:22.195Z,84.99
2018-06-03T03:57:23.825Z,84.80
2018-06-03T03:58:22.190Z,85.18
2018-06-03T04:00:25.571Z,85.28
2018-06-03T04:01:25.048Z,85.18
2018-06-03T04:03:27.020Z,84.51
2018-06-03T04:07:29.499Z,84.70
2018-06-03T04:12:43.390Z,85.08
2018-06-03T04:13:30.881Z,84.89
2018-06-03T04:18:39.304Z,84.60
2018-06-03T04:19:30.850Z,84.41
2018-06-03T04:30:43.162Z,85.18
2018-06-03T04:39:34.711Z,85.08
2018-06-03T04:42:40.688Z,85.18
2018-06-03T04:48:46.176Z,85.89
2018-06-03T04:51:46.787Z,85.41
2018-06-03T04:54:47.059Z,85.51
2018-06-03T04:57:50.072Z,86.22
2018-06-03T05:01:46.710Z,86.13
2018-06-03T05:03:47.665Z,86.04
2018-06-03T05:09:50.714Z,86.61
2018-06-03T05:13:42.757Z,86.42
2018-06-03T05:16:47.267Z,86.71
2018-06-03T05:18:47.108Z,86.61
2018-06-03T05:19:49.086Z,86.90
2018-06-03T05:21:47.107Z,86.71
2018-06-03T05:24:46.539Z,86.99
2018-06-03T05:25:44.552Z,86.99
2018-06-03T05:27:51.285Z,86.80
2018-06-03T05:30:48.241Z,86.90
2018-06-03T05:31:49.737Z,86.75
2018-06-03T05:33:50.722Z,86.65
2018-06-03T05:34:51.223Z,86.75
2018-06-03T05:36:42.689Z,86.75
2018-06-03T05:42:14.665Z,87.56
2018-06-03T05:45:20.728Z,87.46
2018-06-03T05:52:14.844Z,87.62
2018-06-03T05:54:15.792Z,87.62
2018-06-03T05:57:17.247Z,87.37
2018-06-03T06:01:11.254Z,87.66
2018-06-03T06:06:08.354Z,87.66
2018-06-03T06:07:07.368Z,87.66
2018-06-03T06:09:06.913Z,87.66
2018-06-03T06:11:25.243Z,87.46
2018-06-03T06:13:42.704Z,87.56
2018-06-03T06:14:41.724Z,87.46
2018-06-03T06:16:49.155Z,86.69
2018-06-03T06:17:42.654Z,87.18
2018-06-03T06:19:36.133Z,87.03
2018-06-03T06:22:34.080Z,87.22
2018-06-03T06:25:40.542Z,87.22
2018-06-03T06:28:39.008Z,87.22
2018-06-03T06:31:39.949Z,86.98
2018-06-03T06:34:41.954Z,86.59
2018-06-03T06:37:35.888Z,86.88
2018-06-03T06:41:30.471Z,87.07
2018-06-03T06:43:26.465Z,86.78
2018-06-03T06:45:48.037Z,87.40
2018-06-03T06:46:47.872Z,86.82
2018-06-03T06:51:46.718Z,86.92
2018-06-03T06:54:40.887Z,86.88
2018-06-03T06:55:40.289Z,87.46
2018-06-03T06:57:39.643Z,87.17
2018-06-03T07:00:38.110Z,87.12
2018-06-03T07:01:32.184Z,87.41
2018-06-03T07:03:31.595Z,87.22
2018-06-03T07:04:31.155Z,87.03
2018-06-03T07:06:24.827Z,86.83
2018-06-03T07:07:25.322Z,87.41
2018-06-03T07:09:25.204Z,86.83
2018-06-03T07:10:25.236Z,86.93
2018-06-03T07:12:27.617Z,87.51
2018-06-03T07:13:26.723Z,87.51
2018-06-03T07:15:26.359Z,86.98
2018-06-03T07:16:26.161Z,87.80
2018-06-03T07:18:27.250Z,87.26
2018-06-03T07:19:27.628Z,87.46
2018-06-03T07:21:28.109Z,87.46
2018-06-03T07:22:27.151Z,87.74
2018-06-03T07:24:29.219Z,86.88
2018-06-03T07:25:28.113Z,86.92
2018-06-03T07:27:31.098Z,87.40
2018-06-03T07:28:28.147Z,86.92
2018-06-03T07:30:28.523Z,86.73
2018-06-03T07:31:28.549Z,86.96
2018-06-03T07:33:29.981Z,86.48
2018-06-03T07:34:29.942Z,86.68
2018-06-03T07:36:30.852Z,86.19
2018-06-03T07:37:30.326Z,86.72
2018-06-03T07:39:31.763Z,86.33
2018-06-03T07:40:30.862Z,85.85
2018-06-03T07:42:33.885Z,86.04
2018-06-03T07:43:32.410Z,86.04
2018-06-03T07:45:34.290Z,85.94
2018-06-03T07:46:32.851Z,85.37
2018-06-03T07:49:00.893Z,85.75
2018-06-03T07:49:41.873Z,85.56
2018-06-03T07:51:42.654Z,85.75
2018-06-03T07:52:42.515Z,85.22
2018-06-03T07:55:03.717Z,84.59
2018-06-03T07:55:43.079Z,85.22
2018-06-03T07:57:49.018Z,84.93
2018-06-03T08:00:36.390Z,84.31
2018-06-03T08:02:07.542Z,84.89
2018-06-03T08:03:36.320Z,84.21
2018-06-03T08:04:36.432Z,84.21
2018-06-03T08:07:38.836Z,84.11
2018-06-03T08:08:38.225Z,83.77
2018-06-03T08:10:44.752Z,84.25
2018-06-03T08:11:43.631Z,84.06
2018-06-03T08:14:27.176Z,83.52
2018-06-03T08:15:27.186Z,82.65
2018-06-03T08:17:26.423Z,82.79
2018-06-03T08:18:28.214Z,82.50
2018-06-03T08:20:25.496Z,83.14
2018-06-03T08:21:26.911Z,83.42
2018-06-03T08:23:31.612Z,83.37
2018-06-03T08:24:29.011Z,82.60
2018-06-03T08:26:29.634Z,82.79
2018-06-03T08:27:30.710Z,82.79
2018-06-03T08:29:28.499Z,81.77
2018-06-03T08:30:28.022Z,81.67
2018-06-03T08:32:46.549Z,81.09
2018-06-03T08:34:28.913Z,81.19
2018-06-03T08:35:24.405Z,81.44
2018-06-03T08:41:36.342Z,79.89
2018-06-03T08:42:10.488Z,78.64
2018-06-03T08:44:39.687Z,76.70
2018-06-03T08:47:39.454Z,79.12
2018-06-03T08:48:38.708Z,79.22
2018-06-03T08:50:42.337Z,79.41
2018-06-03T08:53:17.046Z,80.86
2018-06-03T08:54:16.695Z,81.40
2018-06-03T08:56:19.202Z,81.59
2018-06-03T08:57:17.239Z,81.15
2018-06-03T08:59:18.225Z,80.76
2018-06-03T09:00:18.291Z,80.86
2018-06-03T09:02:19.667Z,80.53
2018-06-03T09:03:18.191Z,80.24
2018-06-03T09:05:19.678Z,80.62
2018-06-03T09:06:19.271Z,79.75
2018-06-03T09:12:00.128Z,80.82
2018-06-03T09:12:16.995Z,81.11
2018-06-03T09:17:58.696Z,78.44
2018-06-03T09:21:01.172Z,76.93
2018-06-03T09:24:32.811Z,77.45
2018-06-03T09:25:29.809Z,77.65
2018-06-03T09:27:50.328Z,76.87
2018-06-03T09:28:36.274Z,76.78
2018-06-03T09:30:40.101Z,77.55
2018-06-03T09:37:42.395Z,76.97
2018-06-03T09:40:00.328Z,76.10
2018-06-03T09:40:59.266Z,76.74
2018-06-03T09:43:15.639Z,77.13
2018-06-03T09:44:00.942Z,76.68
2018-06-03T09:46:00.232Z,76.45
2018-06-03T09:47:15.790Z,76.20
2018-06-03T09:49:00.999Z,75.04
2018-06-03T09:50:15.027Z,75.04
2018-06-03T09:52:00.481Z,73.91
2018-06-03T09:52:59.957Z,73.04
2018-06-03T09:55:06.434Z,72.27
2018-06-03T09:58:00.369Z,72.40
2018-06-03T09:59:11.506Z,72.11
2018-06-03T10:01:40.215Z,70.08
2018-06-03T10:11:30.143Z,65.27
2018-06-03T10:14:46.720Z,68.47
2018-06-03T10:15:58.737Z,69.59
2018-06-03T10:19:13.480Z,73.72
2018-06-03T10:21:46.575Z,75.04
2018-06-03T10:28:09.581Z,75.43
2018-06-03T10:30:56.281Z,76.90
2018-06-03T10:31:57.282Z,76.64
2018-06-03T10:35:55.240Z,77.13
2018-06-03T10:36:55.262Z,77.07
2018-06-03T10:39:04.854Z,78.33
2018-06-03T10:39:54.858Z,76.59
2018-06-03T10:41:57.346Z,75.23
2018-06-03T10:42:57.801Z,75.81
2018-06-03T10:45:16.968Z,76.39
2018-06-03T10:47:36.132Z,75.71
2018-06-03T10:48:56.657Z,74.27
2018-06-03T10:51:21.691Z,76.04
2018-06-03T10:52:52.713Z,76.10
2018-06-03T10:54:45.275Z,76.91
2018-06-03T10:55:32.239Z,74.01
2018-06-03T10:57:31.260Z,72.08
2018-06-03T10:58:49.926Z,72.50
2018-06-03T11:01:00.450Z,70.08
2018-06-03T11:01:33.743Z,68.37
2018-06-03T11:03:35.215Z,67.21
2018-06-03T11:04:34.193Z,67.21
2018-06-03T11:07:00.217Z,66.92
2018-06-03T11:07:39.690Z,67.44
2018-06-03T11:09:51.790Z,65.40
2018-06-03T11:15:18.228Z,64.24
2018-06-03T11:16:20.479Z,65.30
2018-06-03T11:18:18.592Z,65.01
2018-06-03T11:19:19.932Z,63.85
2018-06-03T11:21:37.396Z,63.75
2018-06-03T11:23:40.533Z,64.56
2018-06-03T11:24:55.908Z,65.05
2018-06-03T11:26:40.877Z,63.59
2018-06-03T11:27:42.371Z,63.59
2018-06-03T11:29:43.378Z,60.97
2018-06-03T11:30:41.355Z,62.79
2018-06-03T11:37:04.671Z,62.91
2018-06-03T11:38:06.980Z,62.91
2018-06-03T11:40:07.100Z,60.10
2018-06-03T11:41:08.588Z,63.20
2018-06-03T11:43:07.568Z,67.14
2018-06-03T11:44:08.059Z,66.95
2018-06-03T11:46:25.588Z,68.30
2018-06-03T11:50:16.610Z,70.83
2018-06-03T11:51:32.243Z,70.15
2018-06-03T11:53:28.883Z,67.57
2018-06-03T11:54:18.373Z,64.62
2018-06-03T11:56:15.886Z,66.95
2018-06-03T11:57:16.345Z,65.59
2018-06-03T11:59:16.414Z,66.95
2018-06-03T12:00:15.846Z,68.47
2018-06-03T12:04:15.363Z,71.37
2018-06-03T12:05:29.696Z,71.18
2018-06-03T12:07:42.888Z,73.41
2018-06-03T12:08:16.332Z,73.41
2018-06-03T12:10:13.747Z,72.53
2018-06-03T12:11:14.740Z,72.83
2018-06-03T12:13:13.725Z,75.40
2018-06-03T12:14:17.739Z,75.92
2018-06-03T12:18:10.467Z,74.96
2018-06-03T12:19:06.454Z,73.69
2018-06-03T12:21:06.176Z,70.70
2018-06-03T12:22:05.172Z,70.47
2018-06-03T12:24:04.143Z,71.92
2018-06-03T12:25:03.653Z,72.83
2018-06-03T12:27:04.823Z,73.89
2018-06-03T12:28:06.302Z,73.69
2018-06-03T12:30:04.484Z,74.28
2018-06-03T12:31:05.308Z,73.89
2018-06-03T12:33:18.344Z,75.11
2018-06-03T12:34:07.804Z,75.02
2018-06-03T12:36:07.287Z,74.15
2018-06-03T12:37:07.781Z,74.43
2018-06-03T12:39:08.367Z,73.75
2018-06-03T12:40:06.957Z,74.24
2018-06-03T12:42:20.745Z,73.75
2018-06-03T12:43:08.547Z,73.47
2018-06-03T12:45:10.289Z,73.50
2018-06-03T12:46:10.786Z,73.99
2018-06-03T12:48:11.449Z,73.02
2018-06-03T12:49:26.266Z,71.37
2018-06-03T12:51:12.730Z,71.76
2018-06-03T12:52:10.873Z,72.73
2018-06-03T12:54:13.207Z,72.57
2018-06-03T12:55:11.349Z,71.50
2018-06-03T13:01:59.621Z,66.17
2018-06-03T13:07:39.591Z,68.12
2018-06-03T13:10:26.442Z,66.75
2018-06-03T13:13:42.764Z,65.63
2018-06-03T13:14:38.589Z,67.76
2018-06-03T13:16:35.684Z,66.30
2018-06-03T13:17:35.195Z,64.98
2018-06-03T13:19:56.583Z,64.47
2018-06-03T13:22:17.387Z,65.43
2018-06-03T13:29:47.719Z,65.72
2018-06-03T13:30:31.649Z,63.01
2018-06-03T13:33:10.727Z,65.72
2018-06-03T13:33:56.613Z,66.11
2018-06-03T13:35:57.389Z,65.11
2018-06-03T13:36:57.651Z,65.50
2018-06-03T13:38:56.742Z,68.37
2018-06-03T13:40:13.130Z,67.69
2018-06-03T13:41:57.211Z,69.73
2018-06-03T13:42:59.549Z,70.40
2018-06-03T13:45:01.666Z,69.92
2018-06-03T13:45:58.724Z,70.40
2018-06-03T13:48:06.011Z,70.11
2018-06-03T13:49:03.498Z,69.53
2018-06-03T13:51:08.316Z,70.95
2018-06-03T13:52:07.206Z,70.08
2018-06-03T13:54:10.702Z,68.27
2018-06-03T13:56:51.748Z,70.11
2018-06-03T14:01:03.858Z,70.21
2018-06-03T14:01:51.664Z,68.08
2018-06-03T14:09:37.129Z,67.53
2018-06-03T14:10:23.634Z,68.50
2018-06-03T14:15:22.167Z,65.27
2018-06-03T14:16:18.577Z,65.69
2018-06-03T14:19:00.215Z,68.12
2018-06-03T14:19:33.054Z,68.30
2018-06-03T14:20:47.956Z,67.66
2018-06-03T14:22:33.557Z,66.60
2018-06-03T14:25:11.998Z,66.85
2018-06-03T14:25:55.686Z,67.34
2018-06-03T14:28:07.962Z,66.85
2018-06-03T14:29:07.185Z,66.89
2018-06-03T14:34:34.443Z,66.24
2018-06-03T14:34:53.087Z,68.47
2018-06-03T14:37:24.669Z,66.82
2018-06-03T14:38:21.525Z,63.91
2018-06-03T14:40:22.256Z,64.78
2018-06-03T14:41:21.701Z,64.40
2018-06-03T14:43:21.871Z,64.20
2018-06-03T14:44:21.251Z,65.75
2018-06-03T14:46:23.726Z,64.30
2018-06-03T14:47:18.034Z,63.53
2018-06-03T14:49:18.582Z,62.29
2018-06-03T14:50:18.535Z,60.71
2018-06-03T14:54:18.522Z,63.62
2018-06-03T14:55:17.569Z,64.01
2018-06-03T14:57:19.549Z,63.53
2018-06-03T14:58:18.946Z,64.11
2018-06-03T15:00:20.388Z,62.72
2018-06-03T15:01:19.391Z,62.72
2018-06-03T15:06:47.536Z,63.88
2018-06-03T15:09:28.134Z,64.59
2018-06-03T15:10:30.145Z,64.20
2018-06-03T15:12:49.086Z,64.78
2018-06-03T15:13:28.579Z,64.20
2018-06-03T15:15:30.130Z,62.88
2018-06-03T15:18:17.760Z,63.75
2018-06-03T15:19:17.800Z,63.53
2018-06-03T15:21:32.641Z,64.11
2018-06-03T15:24:17.562Z,64.11
2018-06-03T15:27:33.265Z,63.62
2018-06-03T15:28:20.897Z,63.13
2018-06-03T15:33:05.864Z,63.23
2018-06-03T15:34:06.167Z,63.62
2018-06-03T15:36:10.209Z,64.30
2018-06-03T15:37:19.868Z,64.78
2018-06-03T15:39:07.823Z,63.72
2018-06-03T15:40:07.202Z,63.59
2018-06-03T15:44:25.574Z,63.69
2018-06-03T15:45:33.584Z,64.17
2018-06-03T15:47:24.011Z,64.72
2018-06-03T15:48:21.515Z,67.24
2018-06-03T15:50:20.499Z,65.53
2018-06-03T15:51:19.998Z,65.24
2018-06-03T15:53:21.038Z,65.53
2018-06-03T15:54:20.501Z,65.24
2018-06-03T15:56:19.022Z,65.05
2018-06-03T15:57:18.989Z,66.11
2018-06-03T15:59:18.657Z,65.05
2018-06-03T16:00:19.170Z,66.79
2018-06-03T16:02:28.154Z,66.11
2018-06-03T16:03:20.135Z,66.40
2018-06-03T16:05:49.694Z,66.05
2018-06-03T16:09:26.566Z,63.91
2018-06-03T16:10:11.176Z,64.50
2018-06-03T16:13:21.539Z,64.17
2018-06-03T16:14:34.560Z,66.11
2018-06-03T16:16:21.992Z,66.30
2018-06-03T16:17:21.499Z,65.08
2018-06-03T16:19:57.532Z,65.66
2018-06-03T16:20:23.012Z,66.14
2018-06-03T16:22:37.859Z,65.75
2018-06-03T16:23:41.432Z,64.78
2018-06-03T16:25:55.942Z,63.23
2018-06-03T16:26:45.094Z,63.23
2018-06-03T16:28:38.088Z,64.40
2018-06-03T16:31:34.095Z,63.85
2018-06-03T16:32:32.087Z,63.04
2018-06-03T16:39:26.615Z,62.85
2018-06-03T16:40:32.406Z,62.65
2018-06-03T16:42:31.289Z,61.39
2018-06-03T16:46:16.036Z,58.64
2018-06-03T16:49:10.809Z,57.82
2018-06-03T16:49:57.115Z,56.75
2018-06-03T16:52:15.784Z,55.13
2018-06-03T16:53:16.791Z,54.64
2018-06-03T16:55:13.423Z,54.05
2018-06-03T16:59:31.186Z,54.88
2018-06-03T17:00:29.691Z,56.89
2018-06-03T17:02:27.576Z,58.22
2018-06-03T17:03:27.791Z,59.97
2018-06-03T17:05:32.539Z,61.42
2018-06-03T17:06:31.134Z,60.35
2018-06-03T17:08:30.551Z,60.35
2018-06-03T17:09:30.073Z,60.64
2018-06-03T17:12:59.752Z,58.31
2018-06-03T17:13:56.253Z,59.48
2018-06-03T17:15:55.402Z,61.52
2018-06-03T17:16:54.600Z,60.35
2018-06-03T17:18:53.897Z,60.81
2018-06-03T17:19:52.450Z,61.49
2018-06-03T17:22:07.074Z,60.42
2018-06-03T17:22:58.430Z,61.78
2018-06-03T17:25:00.337Z,62.82
2018-06-03T17:26:00.838Z,63.98
2018-06-03T17:28:00.314Z,63.78
2018-06-03T17:29:01.316Z,64.37
2018-06-03T17:30:57.291Z,65.24
2018-06-03T17:31:56.295Z,64.95
2018-06-03T17:33:52.775Z,64.65
2018-06-03T17:34:51.322Z,65.43
2018-06-03T17:36:48.250Z,65.82
2018-06-03T17:37:48.236Z,67.85
2018-06-03T17:39:46.504Z,66.75
2018-06-03T17:40:46.930Z,67.14
2018-06-03T17:42:43.577Z,67.34
2018-06-03T17:43:42.613Z,67.53
2018-06-03T17:45:42.537Z,68.79
2018-06-03T17:46:41.542Z,69.67
2018-06-03T17:48:36.993Z,70.89
2018-06-03T17:51:34.930Z,71.28
2018-06-03T17:52:32.952Z,72.24
2018-06-03T17:54:32.400Z,70.50
2018-06-03T17:55:31.890Z,69.63
2018-06-03T17:57:31.562Z,71.08
2018-06-03T17:58:32.541Z,69.15
2018-06-03T18:00:30.027Z,69.34
2018-06-03T18:01:29.024Z,72.44
2018-06-03T18:03:29.982Z,70.89
2018-06-03T18:04:31.493Z,70.60
2018-06-03T18:06:24.948Z,71.14
2018-06-03T18:07:22.947Z,72.53
2018-06-03T18:09:17.963Z,68.66
2018-06-03T18:12:16.861Z,68.73
2018-06-03T18:13:14.863Z,70.18
2018-06-03T18:15:12.864Z,68.33
2018-06-03T18:18:09.345Z,70.89
2018-06-03T18:19:09.843Z,69.73
2018-06-03T18:21:07.493Z,67.63
2018-06-03T18:22:04.071Z,68.99
2018-06-03T18:24:01.965Z,70.34
2018-06-03T18:25:00.017Z,69.05
2018-06-03T18:26:58.423Z,72.63
2018-06-03T18:27:57.420Z,71.08
2018-06-03T18:29:53.399Z,71.92
2018-06-03T18:32:57.359Z,74.24
2018-06-03T18:33:48.869Z,73.91
2018-06-03T18:35:44.841Z,74.79
2018-06-03T18:38:47.829Z,73.82
2018-06-03T18:39:44.418Z,73.72
2018-06-03T18:41:43.767Z,75.95
2018-06-03T18:42:43.281Z,77.11
2018-06-03T18:44:41.724Z,75.27
2018-06-03T18:45:39.725Z,76.14
2018-06-03T18:47:39.189Z,74.79
2018-06-03T18:48:37.197Z,75.17
2018-06-03T18:50:32.736Z,76.14
2018-06-03T18:51:33.658Z,76.68
2018-06-03T18:53:30.124Z,76.49
2018-06-03T18:54:29.187Z,77.17
2018-06-03T18:56:25.607Z,77.17
2018-06-03T18:59:26.649Z,76.39
2018-06-03T19:00:23.053Z,76.78
2018-06-03T19:02:18.104Z,77.17
2018-06-03T19:03:18.049Z,76.39
2018-06-03T19:05:15.953Z,77.90
2018-06-03T19:06:15.457Z,77.51
2018-06-03T19:08:12.054Z,77.71
2018-06-03T19:09:13.425Z,78.00
2018-06-03T19:11:08.463Z,77.86
2018-06-03T19:12:08.011Z,77.96
2018-06-03T19:14:03.994Z,78.34
2018-06-03T19:15:03.923Z,77.96
2018-06-03T19:16:59.885Z,78.73
2018-06-03T19:17:59.907Z,78.83
2018-06-03T19:19:59.296Z,78.73
2018-06-03T19:20:57.869Z,78.73
2018-06-03T19:22:54.863Z,78.34
2018-06-03T19:23:53.848Z,79.08
2018-06-03T19:25:51.969Z,78.79
2018-06-03T19:26:51.987Z,78.79
2018-06-03T19:28:50.022Z,78.69
2018-06-03T19:29:49.964Z,78.11
2018-06-03T19:31:48.371Z,78.69
2018-06-03T19:32:47.893Z,79.27
2018-06-03T19:34:54.352Z,79.37
2018-06-03T19:35:46.046Z,79.66
2018-06-03T19:37:44.160Z,80.00
2018-06-03T19:38:44.169Z,79.91
2018-06-03T19:40:42.330Z,79.91
2018-06-03T19:41:42.296Z,80.10
2018-06-03T19:43:40.269Z,80.00
2018-06-03T19:44:40.292Z,80.20
2018-06-03T19:46:47.305Z,80.10
2018-06-03T19:47:37.240Z,79.91
2018-06-03T19:49:35.216Z,80.00
2018-06-03T19:50:35.228Z,80.10
2018-06-03T19:52:32.657Z,79.91
2018-06-03T19:53:31.130Z,80.87
2018-06-03T19:55:27.178Z,80.78
2018-06-03T19:56:27.094Z,80.64
2018-06-03T19:58:23.584Z,80.83
2018-06-03T19:59:23.114Z,80.64
2018-06-03T20:01:21.063Z,80.74
2018-06-03T20:02:21.528Z,80.83
2018-06-03T20:04:16.977Z,80.54
2018-06-03T20:05:16.991Z,80.74
2018-06-03T20:07:13.486Z,81.02
2018-06-03T20:08:12.959Z,80.83
2018-06-03T20:10:09.446Z,80.74
2018-06-03T20:11:08.926Z,80.69
2018-06-03T20:13:06.305Z,81.27
2018-06-03T20:14:06.404Z,81.09
2018-06-03T20:16:00.843Z,81.18
2018-06-03T20:17:00.845Z,81.37
2018-06-03T20:18:57.314Z,81.57
2018-06-03T20:19:57.353Z,81.66
2018-06-03T20:21:54.780Z,81.66
2018-06-03T20:22:54.718Z,82.43
2018-06-03T20:24:53.194Z,82.62
2018-06-03T20:25:51.198Z,82.24
2018-06-03T20:27:48.277Z,82.59
2018-06-03T20:28:47.158Z,82.59
2018-06-03T20:30:42.775Z,82.29
2018-06-03T20:31:43.134Z,82.87
2018-06-03T20:33:38.571Z,82.59
2018-06-03T20:34:38.587Z,82.49
2018-06-03T20:38:32.213Z,82.68
2018-06-03T20:39:09.732Z,82.39
2018-06-03T20:41:06.172Z,82.29
2018-06-03T20:42:05.190Z,83.26
2018-06-03T21:03:05.333Z,84.09
2018-06-03T21:03:57.833Z,83.70
2018-06-03T21:05:54.791Z,84.38
2018-06-03T21:06:54.793Z,84.28
2018-06-03T21:15:08.269Z,84.76
2018-06-03T21:16:08.246Z,84.53
2018-06-03T21:18:04.237Z,84.53
2018-06-03T21:19:04.249Z,84.81
2018-06-03T21:21:28.804Z,85.00
2018-06-03T21:22:00.181Z,85.20
2018-06-03T21:23:57.134Z,85.10
2018-06-03T21:24:56.151Z,85.87
2018-06-03T21:26:53.113Z,85.49
2018-06-03T21:27:52.115Z,85.68
2018-06-03T21:29:48.041Z,85.00
2018-06-03T21:30:48.572Z,85.20
2018-06-03T21:32:45.454Z,85.78
2018-06-03T21:33:44.026Z,85.97
2018-06-03T21:35:39.980Z,85.20
2018-06-03T21:36:39.969Z,85.78
2018-06-03T21:38:35.889Z,85.78
2018-06-03T21:39:35.878Z,85.78
2018-06-03T21:41:31.869Z,85.39
2018-06-03T21:42:32.870Z,86.16
2018-06-03T21:44:27.814Z,86.31
2018-06-03T21:45:27.863Z,86.31
2018-06-03T21:47:24.299Z,86.22
2018-06-03T21:48:23.771Z,86.22
2018-06-03T21:50:20.746Z,86.41
2018-06-03T21:51:19.733Z,86.60
2018-06-03T21:53:17.217Z,86.69
2018-06-03T21:54:17.188Z,86.60
2018-06-03T21:56:14.164Z,86.31
2018-06-03T21:57:13.645Z,86.79
2018-06-03T21:59:10.607Z,86.79
2018-06-03T22:00:10.105Z,86.60
2018-06-03T22:02:05.553Z,87.08
2018-06-03T22:03:05.544Z,86.99
2018-06-03T22:05:03.033Z,86.79
2018-06-03T22:06:03.941Z,86.99
2018-06-03T22:07:58.964Z,86.69
2018-06-03T22:08:59.890Z,87.37
2018-06-03T22:10:54.919Z,87.37
2018-06-03T22:11:54.411Z,87.27
2018-06-03T22:13:51.385Z,86.89
2018-06-03T22:16:47.751Z,87.13
2018-06-03T22:17:47.745Z,87.04
2018-06-03T22:19:43.708Z,87.13
2018-06-03T22:20:42.292Z,87.33
2018-06-03T22:22:38.264Z,87.42
2018-06-03T22:23:39.669Z,87.42
2018-06-03T22:25:35.128Z,87.42
2018-06-03T22:28:31.615Z,87.42
2018-06-03T22:29:31.099Z,87.42
2018-06-03T22:31:26.056Z,87.62
2018-06-03T22:32:27.508Z,88.10
2018-06-03T22:34:23.967Z,87.62
2018-06-03T22:35:22.027Z,87.90
2018-06-03T22:37:19.905Z,87.81
2018-06-03T22:40:14.962Z,88.39
2018-06-03T22:43:10.865Z,87.90
2018-06-03T22:44:10.868Z,88.06
2018-06-03T22:46:05.890Z,88.29
2018-06-03T22:47:05.894Z,88.57
2018-06-03T22:49:01.879Z,88.15
2018-06-03T22:50:02.833Z,88.24
2018-06-03T22:51:59.719Z,88.53
2018-06-03T22:53:00.226Z,88.57
2018-06-03T22:54:55.754Z,88.15
2018-06-03T22:55:56.208Z,88.06
2018-06-03T22:57:52.714Z,88.34
2018-06-03T22:58:52.688Z,88.24
2018-06-03T23:00:50.227Z,88.34
2018-06-03T23:01:48.640Z,88.63
2018-06-03T23:03:45.120Z,88.44
2018-06-03T23:04:44.629Z,88.53
2018-06-03T23:06:40.632Z,88.53
2018-06-03T23:07:40.610Z,88.34
2018-06-03T23:09:38.547Z,88.34
2018-06-03T23:10:38.588Z,88.34
2018-06-03T23:12:36.964Z,88.15
2018-06-03T23:13:34.537Z,87.96
2018-06-03T23:15:31.414Z,88.20
2018-06-03T23:17:48.452Z,88.01
2018-06-03T23:18:46.474Z,87.62
2018-06-03T23:20:45.342Z,87.82
2018-06-03T23:21:42.411Z,87.24
2018-06-03T23:23:40.794Z,87.24
2018-06-03T23:24:39.309Z,87.24
2018-06-03T23:26:34.357Z,87.43
2018-06-03T23:27:34.816Z,87.24
2018-06-03T23:29:31.208Z,87.53
2018-06-03T23:30:30.237Z,86.85
2018-06-03T23:32:28.128Z,86.95
2018-06-03T23:33:26.193Z,86.85
2018-06-03T23:35:23.082Z,86.95
2018-06-03T23:36:22.121Z,86.85
2018-06-03T23:38:19.031Z,86.95
2018-06-03T23:39:19.034Z,87.05
2018-06-03T23:41:14.975Z,86.28
2018-06-03T23:42:14.062Z,86.85
2018-06-03T23:44:10.507Z,86.14